Airport View

Enter AWOS ICAO identifier for current METAR.

ex. KFNL

KDYB 040525Z AUTO 00000KT 10SM CLR 22/22 A2989 RMK AO2

4 Aug 2020 05:28

Frequency: 119.575

Phone: 843-821-8403

Other Area AWOS: KMKS - KCHS - KRBW - KJZI

TAF AMD KCHS 040407Z 0404/0424 29007KT P6SM FEW013 OVC050 FM041200 32006KT P6SM SCT020 BKN035 FM041900 18011KT P6SM SCT040